createdAt,value
2022-12-11T00:00:33.685Z,90.04
2022-12-11T00:04:45.456Z,90.17
2022-12-11T00:08:57.085Z,90.35
2022-12-11T00:13:08.647Z,90.44
2022-12-11T00:17:20.263Z,90.39
2022-12-11T00:21:32.287Z,90.48
2022-12-11T00:25:45.780Z,90.40
2022-12-11T00:29:57.472Z,90.45
2022-12-11T00:34:12.097Z,90.61
2022-12-11T00:38:24.152Z,90.35
2022-12-11T00:42:35.750Z,90.60
2022-12-11T00:46:47.397Z,90.68
2022-12-11T00:51:00.221Z,90.93
2022-12-11T00:55:12.097Z,90.70
2022-12-11T00:59:23.895Z,90.64
2022-12-11T01:03:37.410Z,90.92
2022-12-11T01:07:49.178Z,90.86
2022-12-11T01:12:00.766Z,90.67
2022-12-11T01:16:15.883Z,90.82
2022-12-11T01:20:28.177Z,90.92
2022-12-11T01:24:39.694Z,90.92
2022-12-11T01:28:52.159Z,90.96
2022-12-11T01:33:04.296Z,90.90
2022-12-11T01:37:15.955Z,90.50
2022-12-11T01:41:27.584Z,91.10
2022-12-11T01:45:42.260Z,90.41
2022-12-11T01:49:53.951Z,90.76
2022-12-11T01:54:08.976Z,91.04
2022-12-11T01:58:25.417Z,90.83
2022-12-11T02:02:37.120Z,90.99
2022-12-11T02:06:50.916Z,90.95
2022-12-11T02:11:20.215Z,91.24
2022-12-11T02:15:56.729Z,90.92
2022-12-11T02:20:17.599Z,91.12
2022-12-11T02:24:57.272Z,91.44
2022-12-11T02:29:15.526Z,91.37
2022-12-11T02:33:42.278Z,91.18
2022-12-11T02:38:03.338Z,90.88
2022-12-11T02:42:16.393Z,91.23
2022-12-11T02:46:29.575Z,91.34
2022-12-11T02:50:46.746Z,91.12
2022-12-11T02:55:01.022Z,91.20
2022-12-11T02:59:21.527Z,91.40
2022-12-11T03:03:33.284Z,91.49
2022-12-11T03:07:45.468Z,91.41
2022-12-11T03:11:57.091Z,91.52
2022-12-11T03:16:31.597Z,91.33
2022-12-11T03:20:45.929Z,91.32
2022-12-11T03:25:06.437Z,91.46
2022-12-11T03:29:23.211Z,91.44
2022-12-11T03:33:39.271Z,91.38
2022-12-11T03:37:53.302Z,91.33
2022-12-11T03:42:09.326Z,91.57
2022-12-11T03:46:24.830Z,91.31
2022-12-11T03:50:37.483Z,91.48
2022-12-11T03:54:50.838Z,91.33
2022-12-11T03:59:02.541Z,91.32
2022-12-11T04:03:14.840Z,91.43
2022-12-11T04:07:26.920Z,91.30
2022-12-11T04:11:39.610Z,90.98
2022-12-11T04:15:51.355Z,91.23
2022-12-11T04:20:23.039Z,91.51
2022-12-11T04:24:34.755Z,91.07
2022-12-11T04:28:47.715Z,90.93
2022-12-11T04:32:59.313Z,91.02
2022-12-11T04:37:11.005Z,91.27
2022-12-11T04:41:22.590Z,91.34
2022-12-11T04:45:34.217Z,90.98
2022-12-11T04:49:46.060Z,91.04
2022-12-11T04:53:59.039Z,91.03
2022-12-11T04:58:10.621Z,90.83
2022-12-11T05:02:22.235Z,91.17
2022-12-11T05:06:33.904Z,91.03
2022-12-11T05:10:50.110Z,91.09
2022-12-11T05:15:01.837Z,90.81
2022-12-11T05:19:13.438Z,90.41
2022-12-11T05:23:25.200Z,90.50
2022-12-11T05:27:37.324Z,91.02
2022-12-11T05:31:48.898Z,90.55
2022-12-11T05:36:00.933Z,90.68
2022-12-11T05:40:12.828Z,90.59
2022-12-11T05:44:24.668Z,90.91
2022-12-11T05:48:37.644Z,90.52
2022-12-11T05:52:49.271Z,90.77
2022-12-11T05:57:00.838Z,90.20
2022-12-11T06:01:27.914Z,90.72
2022-12-11T06:05:41.927Z,90.42
2022-12-11T06:09:53.448Z,90.12
2022-12-11T06:14:05.188Z,90.51
2022-12-11T06:18:17.039Z,90.23
2022-12-11T06:22:28.629Z,89.71
2022-12-11T06:26:40.356Z,89.88
2022-12-11T06:30:52.329Z,89.90
2022-12-11T06:35:04.220Z,90.17
2022-12-11T06:39:15.787Z,89.99
2022-12-11T06:43:27.372Z,89.82
2022-12-11T06:47:38.976Z,89.77
2022-12-11T06:51:50.497Z,89.31
2022-12-11T06:56:14.069Z,89.66
2022-12-11T07:00:25.681Z,89.37
2022-12-11T07:04:37.292Z,89.32
2022-12-11T07:08:49.030Z,89.47
2022-12-11T07:13:00.511Z,89.11
2022-12-11T07:17:12.064Z,89.24
2022-12-11T07:21:23.630Z,89.11
2022-12-11T07:25:37.086Z,88.94
2022-12-11T07:29:50.221Z,89.08
2022-12-11T07:34:05.877Z,88.84
2022-12-11T07:38:17.335Z,89.02
2022-12-11T07:42:28.904Z,88.93
2022-12-11T07:46:40.532Z,88.84
2022-12-11T07:50:52.026Z,88.42
2022-12-11T07:55:04.284Z,88.43
2022-12-11T07:59:16.683Z,88.68
2022-12-11T08:03:28.237Z,88.82
2022-12-11T08:07:40.032Z,88.70
2022-12-11T08:11:52.073Z,88.63
2022-12-11T08:16:05.454Z,88.51
2022-12-11T08:20:16.955Z,88.34
2022-12-11T08:24:28.499Z,88.06
2022-12-11T08:28:40.301Z,87.90
2022-12-11T08:32:52.002Z,87.73
2022-12-11T08:37:03.552Z,87.61
2022-12-11T08:41:21.829Z,87.27
2022-12-11T08:45:34.078Z,86.96
2022-12-11T08:49:45.620Z,86.72
2022-12-11T08:53:59.492Z,87.29
2022-12-11T08:58:11.129Z,87.40
2022-12-11T09:02:22.759Z,87.46
2022-12-11T09:06:34.645Z,87.58
2022-12-11T09:10:46.226Z,87.30
2022-12-11T09:14:57.771Z,87.61
2022-12-11T09:19:14.063Z,87.60
2022-12-11T09:23:25.709Z,87.53
2022-12-11T09:27:37.316Z,87.57
2022-12-11T09:31:49.624Z,87.36
2022-12-11T09:36:02.708Z,87.45
2022-12-11T09:40:14.473Z,87.35
2022-12-11T09:44:54.891Z,87.21
2022-12-11T09:49:19.368Z,86.79
2022-12-11T09:53:35.856Z,86.58
2022-12-11T09:57:56.768Z,86.19
2022-12-11T10:02:22.592Z,86.29
2022-12-11T10:06:41.755Z,86.05
2022-12-11T10:11:34.637Z,86.09
2022-12-11T10:16:01.593Z,86.04
2022-12-11T10:20:28.566Z,85.34
2022-12-11T10:29:22.289Z,84.91
2022-12-11T10:34:02.268Z,84.91
2022-12-11T10:38:35.119Z,84.59
2022-12-11T10:42:54.601Z,84.39
2022-12-11T10:47:11.604Z,84.32
2022-12-11T10:51:33.284Z,84.32
2022-12-11T10:55:47.047Z,83.94
2022-12-11T10:59:59.961Z,84.15
2022-12-11T11:04:29.452Z,83.47
2022-12-11T11:08:50.606Z,83.47
2022-12-11T11:13:03.034Z,83.36
2022-12-11T11:17:17.405Z,84.04
2022-12-11T11:21:30.173Z,83.75
2022-12-11T11:25:59.485Z,83.81
2022-12-11T11:30:19.042Z,83.81
2022-12-11T11:34:30.974Z,83.33
2022-12-11T11:38:50.505Z,83.13
2022-12-11T11:43:38.299Z,83.16
2022-12-11T11:48:11.599Z,83.50
2022-12-11T11:52:34.472Z,83.31
2022-12-11T11:56:46.694Z,83.37
2022-12-11T12:00:58.202Z,83.58
2022-12-11T12:05:13.764Z,83.32
2022-12-11T12:09:54.258Z,83.41
2022-12-11T12:14:51.769Z,83.70
2022-12-11T12:19:42.337Z,83.33
2022-12-11T12:24:09.051Z,83.49
2022-12-11T12:28:53.679Z,83.22
2022-12-11T12:33:27.452Z,83.55
2022-12-11T12:37:57.835Z,83.36
2022-12-11T12:42:28.420Z,83.29
2022-12-11T12:46:53.472Z,83.58
2022-12-11T12:51:06.140Z,83.34
2022-12-11T12:55:22.990Z,83.73
2022-12-11T12:59:34.550Z,83.24
2022-12-11T13:04:05.621Z,83.41
2022-12-11T13:08:25.570Z,83.30
2022-12-11T13:12:42.497Z,83.76
2022-12-11T13:17:26.198Z,82.95
2022-12-11T13:21:41.152Z,83.37
2022-12-11T13:26:00.875Z,83.05
2022-12-11T13:30:15.227Z,83.21
2022-12-11T13:34:31.702Z,83.34
2022-12-11T13:38:50.754Z,83.29
2022-12-11T13:43:05.922Z,83.40
2022-12-11T13:47:19.729Z,83.04
2022-12-11T13:51:34.986Z,82.81
2022-12-11T13:55:47.501Z,82.91
2022-12-11T13:59:59.588Z,83.02
2022-12-11T14:04:17.482Z,83.07
2022-12-11T14:08:35.607Z,82.88
2022-12-11T14:13:10.897Z,83.23
2022-12-11T14:17:26.183Z,83.13
2022-12-11T14:21:38.416Z,83.05
2022-12-11T14:26:15.666Z,83.31
2022-12-11T14:30:30.290Z,82.95
2022-12-11T14:34:45.296Z,82.64
2022-12-11T14:39:02.822Z,83.00
2022-12-11T14:43:37.501Z,82.92
2022-12-11T14:47:50.263Z,83.41
2022-12-11T14:52:03.389Z,83.16
2022-12-11T14:56:19.908Z,83.24
2022-12-11T15:00:35.923Z,83.06
2022-12-11T15:05:03.295Z,83.31
2022-12-11T15:09:21.058Z,83.05
2022-12-11T15:13:35.120Z,83.16
2022-12-11T15:17:52.709Z,82.99
2022-12-11T15:22:08.386Z,83.25
2022-12-11T15:26:21.464Z,83.33
2022-12-11T15:30:35.015Z,83.04
2022-12-11T15:34:52.480Z,83.26
2022-12-11T15:39:09.380Z,83.23
2022-12-11T15:43:21.042Z,83.02
2022-12-11T15:47:33.128Z,83.39
2022-12-11T15:51:44.640Z,83.48
2022-12-11T15:55:57.902Z,83.31
2022-12-11T16:00:14.298Z,83.42
2022-12-11T16:04:25.795Z,83.26
2022-12-11T16:08:37.487Z,83.46
2022-12-11T16:12:49.022Z,83.92
2022-12-11T16:17:00.647Z,83.59
2022-12-11T16:21:15.644Z,83.52
2022-12-11T16:25:32.686Z,83.52
2022-12-11T16:29:44.330Z,83.73
2022-12-11T16:33:55.929Z,83.68
2022-12-11T16:38:07.750Z,83.70
2022-12-11T16:42:19.318Z,83.21
2022-12-11T16:46:31.835Z,83.64
2022-12-11T16:50:43.345Z,83.78
2022-12-11T16:54:56.907Z,83.62
2022-12-11T16:59:09.136Z,83.41
2022-12-11T17:03:20.657Z,83.61
2022-12-11T17:07:33.177Z,83.47
2022-12-11T17:11:44.836Z,83.40
2022-12-11T17:15:56.419Z,83.45
2022-12-11T17:20:09.065Z,83.71
2022-12-11T17:24:20.564Z,83.20
2022-12-11T17:28:32.377Z,83.29
2022-12-11T17:32:47.810Z,83.45
2022-12-11T17:36:59.401Z,83.65
2022-12-11T17:41:18.502Z,83.29
2022-12-11T17:45:32.102Z,83.54
2022-12-11T17:49:43.767Z,83.45
2022-12-11T17:53:56.048Z,82.88
2022-12-11T17:58:07.572Z,83.05
2022-12-11T18:02:19.213Z,83.53
2022-12-11T18:06:31.412Z,83.08
2022-12-11T18:10:43.575Z,83.19
2022-12-11T18:14:58.743Z,83.60
2022-12-11T18:19:10.619Z,83.34
2022-12-11T18:23:22.229Z,83.14
2022-12-11T18:27:33.755Z,83.08
2022-12-11T18:31:45.268Z,82.90
2022-12-11T18:35:56.883Z,82.84
2022-12-11T18:40:09.844Z,82.67
2022-12-11T18:44:22.675Z,82.94
2022-12-11T18:48:34.474Z,82.58
2022-12-11T18:52:45.970Z,82.62
2022-12-11T18:56:57.592Z,82.71
2022-12-11T19:01:17.257Z,82.58
2022-12-11T19:05:29.279Z,82.57
2022-12-11T19:09:46.224Z,82.37
2022-12-11T19:13:59.623Z,82.37
2022-12-11T19:18:11.266Z,82.44
2022-12-11T19:22:22.841Z,82.32
2022-12-11T19:26:35.691Z,82.18
2022-12-11T19:30:48.972Z,82.15
2022-12-11T19:35:00.546Z,81.89
2022-12-11T19:39:14.275Z,82.19
2022-12-11T19:43:25.846Z,82.08
2022-12-11T19:47:37.468Z,82.15
2022-12-11T19:51:49.249Z,82.22
2022-12-11T19:56:01.016Z,82.35
2022-12-11T20:00:13.001Z,82.14
2022-12-11T20:04:24.530Z,81.85
2022-12-11T20:08:44.982Z,82.16
2022-12-11T20:12:58.386Z,82.45
2022-12-11T20:17:12.801Z,81.83
2022-12-11T20:21:27.236Z,82.04
2022-12-11T20:25:40.345Z,81.92
2022-12-11T20:29:52.004Z,82.25
2022-12-11T20:34:04.644Z,82.02
2022-12-11T20:38:16.239Z,82.17
2022-12-11T20:42:27.826Z,81.98
2022-12-11T20:46:39.378Z,82.31
2022-12-11T20:50:50.935Z,82.17
2022-12-11T20:55:02.607Z,82.20
2022-12-11T20:59:14.313Z,82.36
2022-12-11T21:03:25.936Z,82.29
2022-12-11T21:07:37.540Z,82.47
2022-12-11T21:11:49.602Z,82.18
2022-12-11T21:16:05.396Z,81.89
2022-12-11T21:20:17.075Z,82.13
2022-12-11T21:24:29.721Z,82.24
2022-12-11T21:28:41.487Z,81.87
2022-12-11T21:32:53.275Z,82.47
2022-12-11T21:37:04.940Z,82.04
2022-12-11T21:41:22.294Z,82.20
2022-12-11T21:46:00.452Z,82.57
2022-12-11T21:50:08.480Z,82.32
2022-12-11T21:54:20.212Z,82.46
2022-12-11T21:58:31.874Z,82.50
2022-12-11T22:02:43.591Z,82.47
2022-12-11T22:06:55.265Z,82.40
2022-12-11T22:11:07.745Z,82.31
2022-12-11T22:15:19.607Z,82.65
2022-12-11T22:19:32.800Z,82.69
2022-12-11T22:23:44.903Z,82.28
2022-12-11T22:27:56.519Z,82.51
2022-12-11T22:32:08.144Z,82.32
2022-12-11T22:36:20.335Z,81.79
2022-12-11T22:40:32.181Z,81.40
2022-12-11T22:44:43.820Z,81.73
2022-12-11T22:48:55.870Z,81.85
2022-12-11T22:53:07.576Z,81.97
2022-12-11T22:57:19.138Z,81.36
2022-12-11T23:01:30.812Z,81.81
2022-12-11T23:05:43.301Z,81.35
2022-12-11T23:09:54.910Z,81.62
2022-12-11T23:14:08.831Z,81.47
2022-12-11T23:18:20.722Z,81.59
2022-12-11T23:22:33.280Z,81.38
2022-12-11T23:26:44.950Z,80.94
2022-12-11T23:30:56.630Z,81.42
2022-12-11T23:35:08.621Z,81.03
2022-12-11T23:39:20.210Z,81.21
2022-12-11T23:43:33.561Z,81.14
2022-12-11T23:47:45.177Z,81.23
2022-12-11T23:51:56.791Z,80.85
2022-12-11T23:56:12.656Z,80.84
